sensor_id;sensor_type;location;lat;lon;timestamp;P1;P2;P0
40947;PMS5003;49382;-25.924;28.194;2023-04-24T00:01:39;92;89;
40947;PMS5003;49382;-25.924;28.194;2023-04-24T00:04:05;87;85;
40947;PMS5003;49382;-25.924;28.194;2023-04-24T00:06:30;90;89;
40947;PMS5003;49382;-25.924;28.194;2023-04-24T00:08:55;93;92;
40947;PMS5003;49382;-25.924;28.194;2023-04-24T00:11:20;87;87;
40947;PMS5003;49382;-25.924;28.194;2023-04-24T00:13:46;87;86;
40947;PMS5003;49382;-25.924;28.194;2023-04-24T00:16:12;86;84;
40947;PMS5003;49382;-25.924;28.194;2023-04-24T00:18:38;84;82;
40947;PMS5003;49382;-25.924;28.194;2023-04-24T00:21:03;97;92;
40947;PMS5003;49382;-25.924;28.194;2023-04-24T00:23:29;81;79;
40947;PMS5003;49382;-25.924;28.194;2023-04-24T00:25:54;86;81;
40947;PMS5003;49382;-25.924;28.194;2023-04-24T00:28:19;88;85;
40947;PMS5003;49382;-25.924;28.194;2023-04-24T00:30:45;83;82;
40947;PMS5003;49382;-25.924;28.194;2023-04-24T00:33:10;87;84;
40947;PMS5003;49382;-25.924;28.194;2023-04-24T00:35:36;80;80;
40947;PMS5003;49382;-25.924;28.194;2023-04-24T00:38:01;87;83;
40947;PMS5003;49382;-25.924;28.194;2023-04-24T00:40:27;86;85;
40947;PMS5003;49382;-25.924;28.194;2023-04-24T00:42:53;86;84;
40947;PMS5003;49382;-25.924;28.194;2023-04-24T00:45:18;89;86;
40947;PMS5003;49382;-25.924;28.194;2023-04-24T00:47:43;83;82;
40947;PMS5003;49382;-25.924;28.194;2023-04-24T00:50:09;75;72;
40947;PMS5003;49382;-25.924;28.194;2023-04-24T00:52:34;91;87;
40947;PMS5003;49382;-25.924;28.194;2023-04-24T00:54:59;82;80;
40947;PMS5003;49382;-25.924;28.194;2023-04-24T00:57:25;79;75;
40947;PMS5003;49382;-25.924;28.194;2023-04-24T00:59:50;79;75;
40947;PMS5003;49382;-25.924;28.194;2023-04-24T01:02:16;75;73;
40947;PMS5003;49382;-25.924;28.194;2023-04-24T01:04:41;79;77;
40947;PMS5003;49382;-25.924;28.194;2023-04-24T01:07:06;78;76;
40947;PMS5003;49382;-25.924;28.194;2023-04-24T01:09:31;76;73;
40947;PMS5003;49382;-25.924;28.194;2023-04-24T01:11:57;74;69;
40947;PMS5003;49382;-25.924;28.194;2023-04-24T01:14:22;72;71;
40947;PMS5003;49382;-25.924;28.194;2023-04-24T01:16:48;75;72;
40947;PMS5003;49382;-25.924;28.194;2023-04-24T01:19:13;72;70;
40947;PMS5003;49382;-25.924;28.194;2023-04-24T01:21:38;71;68;
40947;PMS5003;49382;-25.924;28.194;2023-04-24T01:24:05;71;68;
40947;PMS5003;49382;-25.924;28.194;2023-04-24T01:26:30;72;71;
40947;PMS5003;49382;-25.924;28.194;2023-04-24T01:28:56;68;67;
40947;PMS5003;49382;-25.924;28.194;2023-04-24T01:31:20;67;66;
40947;PMS5003;49382;-25.924;28.194;2023-04-24T01:33:46;73;71;
40947;PMS5003;49382;-25.924;28.194;2023-04-24T01:36:11;68;66;
40947;PMS5003;49382;-25.924;28.194;2023-04-24T01:38:37;73;68;
40947;PMS5003;49382;-25.924;28.194;2023-04-24T01:41:02;66;59;
40947;PMS5003;49382;-25.924;28.194;2023-04-24T01:43:28;66;65;
40947;PMS5003;49382;-25.924;28.194;2023-04-24T01:45:53;69;65;
40947;PMS5003;49382;-25.924;28.194;2023-04-24T01:48:19;66;65;
40947;PMS5003;49382;-25.924;28.194;2023-04-24T01:50:45;64;63;
40947;PMS5003;49382;-25.924;28.194;2023-04-24T01:53:10;67;67;
40947;PMS5003;49382;-25.924;28.194;2023-04-24T01:55:36;61;59;
40947;PMS5003;49382;-25.924;28.194;2023-04-24T01:58:02;61;60;
40947;PMS5003;49382;-25.924;28.194;2023-04-24T02:00:27;58;57;
40947;PMS5003;49382;-25.924;28.194;2023-04-24T02:02:52;64;62;
40947;PMS5003;49382;-25.924;28.194;2023-04-24T02:05:17;63;62;
40947;PMS5003;49382;-25.924;28.194;2023-04-24T02:07:43;58;58;
40947;PMS5003;49382;-25.924;28.194;2023-04-24T02:10:09;50;49;
40947;PMS5003;49382;-25.924;28.194;2023-04-24T02:12:35;52;49;
40947;PMS5003;49382;-25.924;28.194;2023-04-24T02:15:00;53;52;
40947;PMS5003;49382;-25.924;28.194;2023-04-24T02:17:25;58;56;
40947;PMS5003;49382;-25.924;28.194;2023-04-24T02:19:51;52;51;
40947;PMS5003;49382;-25.924;28.194;2023-04-24T02:22:16;47;46;
40947;PMS5003;49382;-25.924;28.194;2023-04-24T02:24:41;51;49;
40947;PMS5003;49382;-25.924;28.194;2023-04-24T02:27:06;49;49;
40947;PMS5003;49382;-25.924;28.194;2023-04-24T02:29:32;49;48;
40947;PMS5003;49382;-25.924;28.194;2023-04-24T02:31:57;48;47;
40947;PMS5003;49382;-25.924;28.194;2023-04-24T02:34:23;50;49;
40947;PMS5003;49382;-25.924;28.194;2023-04-24T02:36:49;52;51;
40947;PMS5003;49382;-25.924;28.194;2023-04-24T02:39:14;50;47;
40947;PMS5003;49382;-25.924;28.194;2023-04-24T02:41:39;52;49;
40947;PMS5003;49382;-25.924;28.194;2023-04-24T02:44:05;57;57;
40947;PMS5003;49382;-25.924;28.194;2023-04-24T02:46:30;68;67;
40947;PMS5003;49382;-25.924;28.194;2023-04-24T02:48:56;63;62;
40947;PMS5003;49382;-25.924;28.194;2023-04-24T02:51:21;60;59;
40947;PMS5003;49382;-25.924;28.194;2023-04-24T02:53:47;59;57;
40947;PMS5003;49382;-25.924;28.194;2023-04-24T02:56:13;58;57;
40947;PMS5003;49382;-25.924;28.194;2023-04-24T02:58:38;72;70;
40947;PMS5003;49382;-25.924;28.194;2023-04-24T03:01:03;69;67;
40947;PMS5003;49382;-25.924;28.194;2023-04-24T03:03:28;69;67;
40947;PMS5003;49382;-25.924;28.194;2023-04-24T03:05:54;77;75;
40947;PMS5003;49382;-25.924;28.194;2023-04-24T03:08:19;82;81;
40947;PMS5003;49382;-25.924;28.194;2023-04-24T03:10:45;77;76;
40947;PMS5003;49382;-25.924;28.194;2023-04-24T03:13:10;83;80;
40947;PMS5003;49382;-25.924;28.194;2023-04-24T03:15:36;75;72;
40947;PMS5003;49382;-25.924;28.194;2023-04-24T03:18:01;75;69;
40947;PMS5003;49382;-25.924;28.194;2023-04-24T03:20:27;69;62;
40947;PMS5003;49382;-25.924;28.194;2023-04-24T03:22:53;66;63;
40947;PMS5003;49382;-25.924;28.194;2023-04-24T03:25:18;59;57;
40947;PMS5003;49382;-25.924;28.194;2023-04-24T03:27:44;51;48;
40947;PMS5003;49382;-25.924;28.194;2023-04-24T03:30:10;52;52;
40947;PMS5003;49382;-25.924;28.194;2023-04-24T03:32:35;49;49;
40947;PMS5003;49382;-25.924;28.194;2023-04-24T03:35:01;48;48;
40947;PMS5003;49382;-25.924;28.194;2023-04-24T03:37:26;53;50;
40947;PMS5003;49382;-25.924;28.194;2023-04-24T03:39:52;51;48;
40947;PMS5003;49382;-25.924;28.194;2023-04-24T03:42:18;44;44;
40947;PMS5003;49382;-25.924;28.194;2023-04-24T03:44:43;44;43;
40947;PMS5003;49382;-25.924;28.194;2023-04-24T03:47:08;41;40;
40947;PMS5003;49382;-25.924;28.194;2023-04-24T03:49:33;42;38;
40947;PMS5003;49382;-25.924;28.194;2023-04-24T03:51:59;37;36;
40947;PMS5003;49382;-25.924;28.194;2023-04-24T03:54:24;48;45;
40947;PMS5003;49382;-25.924;28.194;2023-04-24T03:56:49;43;42;
40947;PMS5003;49382;-25.924;28.194;2023-04-24T03:59:15;34;32;
40947;PMS5003;49382;-25.924;28.194;2023-04-24T04:01:40;33;32;
40947;PMS5003;49382;-25.924;28.194;2023-04-24T04:04:06;23;22;
40947;PMS5003;49382;-25.924;28.194;2023-04-24T04:06:31;25;24;
40947;PMS5003;49382;-25.924;28.194;2023-04-24T04:08:57;33;32;
40947;PMS5003;49382;-25.924;28.194;2023-04-24T04:11:22;29;29;
40947;PMS5003;49382;-25.924;28.194;2023-04-24T04:13:49;34;33;
40947;PMS5003;49382;-25.924;28.194;2023-04-24T04:16:13;27;25;
40947;PMS5003;49382;-25.924;28.194;2023-04-24T04:18:38;19;19;
40947;PMS5003;49382;-25.924;28.194;2023-04-24T04:21:04;19;19;
40947;PMS5003;49382;-25.924;28.194;2023-04-24T04:23:29;23;23;
40947;PMS5003;49382;-25.924;28.194;2023-04-24T04:25:55;33;33;
40947;PMS5003;49382;-25.924;28.194;2023-04-24T04:28:20;54;52;
40947;PMS5003;49382;-25.924;28.194;2023-04-24T04:30:46;63;61;
40947;PMS5003;49382;-25.924;28.194;2023-04-24T04:33:11;60;59;
40947;PMS5003;49382;-25.924;28.194;2023-04-24T04:35:36;52;51;
40947;PMS5003;49382;-25.924;28.194;2023-04-24T04:38:02;58;56;
40947;PMS5003;49382;-25.924;28.194;2023-04-24T04:40:27;61;60;
40947;PMS5003;49382;-25.924;28.194;2023-04-24T04:42:53;66;64;
40947;PMS5003;49382;-25.924;28.194;2023-04-24T04:45:19;68;65;
40947;PMS5003;49382;-25.924;28.194;2023-04-24T04:47:44;71;69;
40947;PMS5003;49382;-25.924;28.194;2023-04-24T04:50:10;70;68;
40947;PMS5003;49382;-25.924;28.194;2023-04-24T04:52:36;71;69;
40947;PMS5003;49382;-25.924;28.194;2023-04-24T04:55:01;68;65;
40947;PMS5003;49382;-25.924;28.194;2023-04-24T04:57:26;48;46;
40947;PMS5003;49382;-25.924;28.194;2023-04-24T04:59:52;41;40;
40947;PMS5003;49382;-25.924;28.194;2023-04-24T05:02:18;63;61;
40947;PMS5003;49382;-25.924;28.194;2023-04-24T05:04:43;69;65;
40947;PMS5003;49382;-25.924;28.194;2023-04-24T05:07:09;68;66;
40947;PMS5003;49382;-25.924;28.194;2023-04-24T05:09:34;78;74;
40947;PMS5003;49382;-25.924;28.194;2023-04-24T05:11:59;84;78;
40947;PMS5003;49382;-25.924;28.194;2023-04-24T05:14:25;82;80;
40947;PMS5003;49382;-25.924;28.194;2023-04-24T05:16:50;72;69;
40947;PMS5003;49382;-25.924;28.194;2023-04-24T05:19:16;74;72;
40947;PMS5003;49382;-25.924;28.194;2023-04-24T05:21:42;77;75;
40947;PMS5003;49382;-25.924;28.194;2023-04-24T05:24:07;81;77;
40947;PMS5003;49382;-25.924;28.194;2023-04-24T05:26:32;84;77;
40947;PMS5003;49382;-25.924;28.194;2023-04-24T05:28:58;72;66;
40947;PMS5003;49382;-25.924;28.194;2023-04-24T05:31:23;72;71;
40947;PMS5003;49382;-25.924;28.194;2023-04-24T05:33:49;74;72;
40947;PMS5003;49382;-25.924;28.194;2023-04-24T05:36:14;75;72;
40947;PMS5003;49382;-25.924;28.194;2023-04-24T05:38:40;62;59;
40947;PMS5003;49382;-25.924;28.194;2023-04-24T05:41:05;52;51;
40947;PMS5003;49382;-25.924;28.194;2023-04-24T05:43:31;51;50;
40947;PMS5003;49382;-25.924;28.194;2023-04-24T05:45:56;32;30;
40947;PMS5003;49382;-25.924;28.194;2023-04-24T05:48:21;29;28;
40947;PMS5003;49382;-25.924;28.194;2023-04-24T05:50:46;26;26;
40947;PMS5003;49382;-25.924;28.194;2023-04-24T05:53:12;25;24;
40947;PMS5003;49382;-25.924;28.194;2023-04-24T05:55:38;22;21;
40947;PMS5003;49382;-25.924;28.194;2023-04-24T05:58:03;32;32;
40947;PMS5003;49382;-25.924;28.194;2023-04-24T06:00:29;46;45;
40947;PMS5003;49382;-25.924;28.194;2023-04-24T06:02:54;45;44;
40947;PMS5003;49382;-25.924;28.194;2023-04-24T06:05:20;56;54;
40947;PMS5003;49382;-25.924;28.194;2023-04-24T06:07:45;56;54;
40947;PMS5003;49382;-25.924;28.194;2023-04-24T06:10:11;54;54;
40947;PMS5003;49382;-25.924;28.194;2023-04-24T06:12:36;55;54;
40947;PMS5003;49382;-25.924;28.194;2023-04-24T06:15:02;60;59;
40947;PMS5003;49382;-25.924;28.194;2023-04-24T06:17:27;59;56;
40947;PMS5003;49382;-25.924;28.194;2023-04-24T06:19:53;57;57;
40947;PMS5003;49382;-25.924;28.194;2023-04-24T06:22:18;68;66;
40947;PMS5003;49382;-25.924;28.194;2023-04-24T06:24:43;65;63;
40947;PMS5003;49382;-25.924;28.194;2023-04-24T06:27:09;61;59;
40947;PMS5003;49382;-25.924;28.194;2023-04-24T06:29:35;54;52;
40947;PMS5003;49382;-25.924;28.194;2023-04-24T06:32:00;48;47;
40947;PMS5003;49382;-25.924;28.194;2023-04-24T06:34:25;52;51;
40947;PMS5003;49382;-25.924;28.194;2023-04-24T06:36:51;53;52;
40947;PMS5003;49382;-25.924;28.194;2023-04-24T06:39:16;53;52;
40947;PMS5003;49382;-25.924;28.194;2023-04-24T06:41:42;46;45;
40947;PMS5003;49382;-25.924;28.194;2023-04-24T06:44:07;35;35;
40947;PMS5003;49382;-25.924;28.194;2023-04-24T06:46:33;34;33;
40947;PMS5003;49382;-25.924;28.194;2023-04-24T06:48:58;31;30;
40947;PMS5003;49382;-25.924;28.194;2023-04-24T06:51:23;26;25;
40947;PMS5003;49382;-25.924;28.194;2023-04-24T06:53:49;25;23;
40947;PMS5003;49382;-25.924;28.194;2023-04-24T06:56:14;23;21;
40947;PMS5003;49382;-25.924;28.194;2023-04-24T06:58:40;19;18;
40947;PMS5003;49382;-25.924;28.194;2023-04-24T07:01:05;16;16;
40947;PMS5003;49382;-25.924;28.194;2023-04-24T07:03:31;16;16;
40947;PMS5003;49382;-25.924;28.194;2023-04-24T07:05:57;16;16;
40947;PMS5003;49382;-25.924;28.194;2023-04-24T07:08:23;15;15;
40947;PMS5003;49382;-25.924;28.194;2023-04-24T07:10:49;14;13;
40947;PMS5003;49382;-25.924;28.194;2023-04-24T07:13:14;19;19;
40947;PMS5003;49382;-25.924;28.194;2023-04-24T07:15:40;20;20;
40947;PMS5003;49382;-25.924;28.194;2023-04-24T07:18:06;10;10;
40947;PMS5003;49382;-25.924;28.194;2023-04-24T07:20:32;8;7;
40947;PMS5003;49382;-25.924;28.194;2023-04-24T07:22:58;10;10;
40947;PMS5003;49382;-25.924;28.194;2023-04-24T07:25:24;12;12;
40947;PMS5003;49382;-25.924;28.194;2023-04-24T07:27:49;11;11;
40947;PMS5003;49382;-25.924;28.194;2023-04-24T07:30:15;11;11;
40947;PMS5003;49382;-25.924;28.194;2023-04-24T07:32:41;13;12;
40947;PMS5003;49382;-25.924;28.194;2023-04-24T07:35:07;46;46;
40947;PMS5003;49382;-25.924;28.194;2023-04-24T07:37:32;23;22;
40947;PMS5003;49382;-25.924;28.194;2023-04-24T07:39:57;64;64;
40947;PMS5003;49382;-25.924;28.194;2023-04-24T07:42:23;15;15;
40947;PMS5003;49382;-25.924;28.194;2023-04-24T07:44:48;49;49;
40947;PMS5003;49382;-25.924;28.194;2023-04-24T07:47:13;39;37;
40947;PMS5003;49382;-25.924;28.194;2023-04-24T07:49:39;20;20;
40947;PMS5003;49382;-25.924;28.194;2023-04-24T07:52:05;17;17;
40947;PMS5003;49382;-25.924;28.194;2023-04-24T07:54:30;30;30;
40947;PMS5003;49382;-25.924;28.194;2023-04-24T07:56:56;19;18;
40947;PMS5003;49382;-25.924;28.194;2023-04-24T07:59:22;18;14;
40947;PMS5003;49382;-25.924;28.194;2023-04-24T08:01:49;20;19;
40947;PMS5003;49382;-25.924;28.194;2023-04-24T08:04:14;17;16;
40947;PMS5003;49382;-25.924;28.194;2023-04-24T08:06:39;19;18;
40947;PMS5003;49382;-25.924;28.194;2023-04-24T08:09:05;27;27;
40947;PMS5003;49382;-25.924;28.194;2023-04-24T08:11:30;19;18;
40947;PMS5003;49382;-25.924;28.194;2023-04-24T08:13:56;17;17;
40947;PMS5003;49382;-25.924;28.194;2023-04-24T08:16:22;13;13;
40947;PMS5003;49382;-25.924;28.194;2023-04-24T08:18:48;15;13;
40947;PMS5003;49382;-25.924;28.194;2023-04-24T08:21:13;122;122;
40947;PMS5003;49382;-25.924;28.194;2023-04-24T08:23:38;34;34;
40947;PMS5003;49382;-25.924;28.194;2023-04-24T08:26:04;11;11;
40947;PMS5003;49382;-25.924;28.194;2023-04-24T08:28:30;7;7;
40947;PMS5003;49382;-25.924;28.194;2023-04-24T08:30:55;6;6;
40947;PMS5003;49382;-25.924;28.194;2023-04-24T08:33:22;8;8;
40947;PMS5003;49382;-25.924;28.194;2023-04-24T08:35:47;7;7;
40947;PMS5003;49382;-25.924;28.194;2023-04-24T08:38:12;9;9;
40947;PMS5003;49382;-25.924;28.194;2023-04-24T08:40:38;6;6;
40947;PMS5003;49382;-25.924;28.194;2023-04-24T08:43:04;6;6;
40947;PMS5003;49382;-25.924;28.194;2023-04-24T08:45:29;8;7;
40947;PMS5003;49382;-25.924;28.194;2023-04-24T08:47:55;7;7;
40947;PMS5003;49382;-25.924;28.194;2023-04-24T08:50:21;6;6;
40947;PMS5003;49382;-25.924;28.194;2023-04-24T08:52:46;7;6;
40947;PMS5003;49382;-25.924;28.194;2023-04-24T08:55:12;5;5;
40947;PMS5003;49382;-25.924;28.194;2023-04-24T08:57:37;5;5;
40947;PMS5003;49382;-25.924;28.194;2023-04-24T09:00:03;6;5;
40947;PMS5003;49382;-25.924;28.194;2023-04-24T09:02:29;6;5;
40947;PMS5003;49382;-25.924;28.194;2023-04-24T09:04:55;6;5;
40947;PMS5003;49382;-25.924;28.194;2023-04-24T09:07:20;41;41;
40947;PMS5003;49382;-25.924;28.194;2023-04-24T09:09:45;16;16;
40947;PMS5003;49382;-25.924;28.194;2023-04-24T09:12:11;18;18;
40947;PMS5003;49382;-25.924;28.194;2023-04-24T09:14:37;40;39;
40947;PMS5003;49382;-25.924;28.194;2023-04-24T09:17:02;176;176;
40947;PMS5003;49382;-25.924;28.194;2023-04-24T09:19:27;5;4;
40947;PMS5003;49382;-25.924;28.194;2023-04-24T09:21:53;7;7;
40947;PMS5003;49382;-25.924;28.194;2023-04-24T09:24:20;9;8;
40947;PMS5003;49382;-25.924;28.194;2023-04-24T09:26:44;6;6;
40947;PMS5003;49382;-25.924;28.194;2023-04-24T09:29:14;9;9;
40947;PMS5003;49382;-25.924;28.194;2023-04-24T09:31:36;9;9;
40947;PMS5003;49382;-25.924;28.194;2023-04-24T09:34:02;8;8;
40947;PMS5003;49382;-25.924;28.194;2023-04-24T09:36:28;10;10;
40947;PMS5003;49382;-25.924;28.194;2023-04-24T09:38:53;10;10;
40947;PMS5003;49382;-25.924;28.194;2023-04-24T09:41:19;11;10;
40947;PMS5003;49382;-25.924;28.194;2023-04-24T09:43:44;13;13;
40947;PMS5003;49382;-25.924;28.194;2023-04-24T09:46:10;10;10;
40947;PMS5003;49382;-25.924;28.194;2023-04-24T09:48:36;22;22;
40947;PMS5003;49382;-25.924;28.194;2023-04-24T09:51:02;32;32;
40947;PMS5003;49382;-25.924;28.194;2023-04-24T09:53:27;31;31;
40947;PMS5003;49382;-25.924;28.194;2023-04-24T09:55:52;79;79;
40947;PMS5003;49382;-25.924;28.194;2023-04-24T09:58:18;19;18;
40947;PMS5003;49382;-25.924;28.194;2023-04-24T10:00:43;20;19;
40947;PMS5003;49382;-25.924;28.194;2023-04-24T10:03:09;50;50;
40947;PMS5003;49382;-25.924;28.194;2023-04-24T10:05:35;69;68;
40947;PMS5003;49382;-25.924;28.194;2023-04-24T10:08:02;18;18;
40947;PMS5003;49382;-25.924;28.194;2023-04-24T10:10:25;43;43;
40947;PMS5003;49382;-25.924;28.194;2023-04-24T10:12:50;14;14;
40947;PMS5003;49382;-25.924;28.194;2023-04-24T10:15:16;14;14;
40947;PMS5003;49382;-25.924;28.194;2023-04-24T10:17:42;15;14;
40947;PMS5003;49382;-25.924;28.194;2023-04-24T10:20:08;12;12;
40947;PMS5003;49382;-25.924;28.194;2023-04-24T10:22:33;16;16;
40947;PMS5003;49382;-25.924;28.194;2023-04-24T10:24:59;17;16;
40947;PMS5003;49382;-25.924;28.194;2023-04-24T10:27:25;17;17;
40947;PMS5003;49382;-25.924;28.194;2023-04-24T10:29:51;17;17;
40947;PMS5003;49382;-25.924;28.194;2023-04-24T10:32:17;16;15;
40947;PMS5003;49382;-25.924;28.194;2023-04-24T10:34:42;16;16;
40947;PMS5003;49382;-25.924;28.194;2023-04-24T10:37:08;18;18;
40947;PMS5003;49382;-25.924;28.194;2023-04-24T10:39:33;17;17;
40947;PMS5003;49382;-25.924;28.194;2023-04-24T10:41:59;15;15;
40947;PMS5003;49382;-25.924;28.194;2023-04-24T10:44:25;16;16;
40947;PMS5003;49382;-25.924;28.194;2023-04-24T10:46:53;12;12;
40947;PMS5003;49382;-25.924;28.194;2023-04-24T10:49:16;11;11;
40947;PMS5003;49382;-25.924;28.194;2023-04-24T10:51:45;13;13;
40947;PMS5003;49382;-25.924;28.194;2023-04-24T10:56:34;13;13;
40947;PMS5003;49382;-25.924;28.194;2023-04-24T10:59:00;13;12;
40947;PMS5003;49382;-25.924;28.194;2023-04-24T11:01:26;12;12;
40947;PMS5003;49382;-25.924;28.194;2023-04-24T11:03:54;11;11;
40947;PMS5003;49382;-25.924;28.194;2023-04-24T11:06:17;12;12;
40947;PMS5003;49382;-25.924;28.194;2023-04-24T11:08:43;11;11;
40947;PMS5003;49382;-25.924;28.194;2023-04-24T11:11:09;12;12;
40947;PMS5003;49382;-25.924;28.194;2023-04-24T11:18:25;16;16;
40947;PMS5003;49382;-25.924;28.194;2023-04-24T11:20:51;16;16;
40947;PMS5003;49382;-25.924;28.194;2023-04-24T11:23:17;14;14;
40947;PMS5003;49382;-25.924;28.194;2023-04-24T11:25:43;15;15;
40947;PMS5003;49382;-25.924;28.194;2023-04-24T11:28:09;17;15;
40947;PMS5003;49382;-25.924;28.194;2023-04-24T11:30:34;18;17;
40947;PMS5003;49382;-25.924;28.194;2023-04-24T11:33:02;19;19;
40947;PMS5003;49382;-25.924;28.194;2023-04-24T11:35:26;21;20;
40947;PMS5003;49382;-25.924;28.194;2023-04-24T11:37:52;21;20;
40947;PMS5003;49382;-25.924;28.194;2023-04-24T11:40:19;21;21;
40947;PMS5003;49382;-25.924;28.194;2023-04-24T11:42:44;15;15;
40947;PMS5003;49382;-25.924;28.194;2023-04-24T11:45:10;17;17;
40947;PMS5003;49382;-25.924;28.194;2023-04-24T11:47:35;18;18;
40947;PMS5003;49382;-25.924;28.194;2023-04-24T11:50:01;18;18;
40947;PMS5003;49382;-25.924;28.194;2023-04-24T11:52:27;19;19;
40947;PMS5003;49382;-25.924;28.194;2023-04-24T11:54:52;18;18;
40947;PMS5003;49382;-25.924;28.194;2023-04-24T11:57:19;19;19;
40947;PMS5003;49382;-25.924;28.194;2023-04-24T11:59:44;15;15;
40947;PMS5003;49382;-25.924;28.194;2023-04-24T12:04:39;16;16;
40947;PMS5003;49382;-25.924;28.194;2023-04-24T12:07:01;18;18;
40947;PMS5003;49382;-25.924;28.194;2023-04-24T12:09:27;15;15;
40947;PMS5003;49382;-25.924;28.194;2023-04-24T12:11:53;19;19;
40947;PMS5003;49382;-25.924;28.194;2023-04-24T12:14:18;18;17;
40947;PMS5003;49382;-25.924;28.194;2023-04-24T12:16:47;17;17;
40947;PMS5003;49382;-25.924;28.194;2023-04-24T12:19:10;17;17;
40947;PMS5003;49382;-25.924;28.194;2023-04-24T12:21:36;19;19;
40947;PMS5003;49382;-25.924;28.194;2023-04-24T12:24:01;19;19;
40947;PMS5003;49382;-25.924;28.194;2023-04-24T12:26:27;18;18;
40947;PMS5003;49382;-25.924;28.194;2023-04-24T12:28:53;20;20;
40947;PMS5003;49382;-25.924;28.194;2023-04-24T12:31:19;16;16;
40947;PMS5003;49382;-25.924;28.194;2023-04-24T12:33:44;19;19;
40947;PMS5003;49382;-25.924;28.194;2023-04-24T12:36:11;21;20;
40947;PMS5003;49382;-25.924;28.194;2023-04-24T12:38:36;19;19;
40947;PMS5003;49382;-25.924;28.194;2023-04-24T12:41:02;20;20;
40947;PMS5003;49382;-25.924;28.194;2023-04-24T12:43:28;22;22;
40947;PMS5003;49382;-25.924;28.194;2023-04-24T12:45:53;20;20;
40947;PMS5003;49382;-25.924;28.194;2023-04-24T12:48:19;19;19;
40947;PMS5003;49382;-25.924;28.194;2023-04-24T12:50:44;31;31;
40947;PMS5003;49382;-25.924;28.194;2023-04-24T12:53:10;21;21;
40947;PMS5003;49382;-25.924;28.194;2023-04-24T12:55:36;20;20;
40947;PMS5003;49382;-25.924;28.194;2023-04-24T12:58:01;25;23;
40947;PMS5003;49382;-25.924;28.194;2023-04-24T13:00:27;33;33;
40947;PMS5003;49382;-25.924;28.194;2023-04-24T13:02:53;26;26;
40947;PMS5003;49382;-25.924;28.194;2023-04-24T13:05:18;31;31;
40947;PMS5003;49382;-25.924;28.194;2023-04-24T13:07:43;32;32;
40947;PMS5003;49382;-25.924;28.194;2023-04-24T13:10:09;26;26;
40947;PMS5003;49382;-25.924;28.194;2023-04-24T13:12:34;31;31;
40947;PMS5003;49382;-25.924;28.194;2023-04-24T13:14:59;31;31;
40947;PMS5003;49382;-25.924;28.194;2023-04-24T13:17:25;19;19;
40947;PMS5003;49382;-25.924;28.194;2023-04-24T13:19:51;30;30;
40947;PMS5003;49382;-25.924;28.194;2023-04-24T13:22:16;31;31;
40947;PMS5003;49382;-25.924;28.194;2023-04-24T13:24:42;25;25;
40947;PMS5003;49382;-25.924;28.194;2023-04-24T13:27:08;25;25;
40947;PMS5003;49382;-25.924;28.194;2023-04-24T13:29:33;35;33;
40947;PMS5003;49382;-25.924;28.194;2023-04-24T13:31:59;32;31;
40947;PMS5003;49382;-25.924;28.194;2023-04-24T13:34:24;32;32;
40947;PMS5003;49382;-25.924;28.194;2023-04-24T13:36:50;32;32;
40947;PMS5003;49382;-25.924;28.194;2023-04-24T13:39:15;36;36;
40947;PMS5003;49382;-25.924;28.194;2023-04-24T13:41:41;40;40;
40947;PMS5003;49382;-25.924;28.194;2023-04-24T13:44:06;41;40;
40947;PMS5003;49382;-25.924;28.194;2023-04-24T13:46:32;31;31;
40947;PMS5003;49382;-25.924;28.194;2023-04-24T13:48:57;39;38;
40947;PMS5003;49382;-25.924;28.194;2023-04-24T13:51:23;30;30;
40947;PMS5003;49382;-25.924;28.194;2023-04-24T13:53:48;38;38;
40947;PMS5003;49382;-25.924;28.194;2023-04-24T13:56:13;34;33;
40947;PMS5003;49382;-25.924;28.194;2023-04-24T13:58:38;40;40;
40947;PMS5003;49382;-25.924;28.194;2023-04-24T14:01:03;53;53;
40947;PMS5003;49382;-25.924;28.194;2023-04-24T14:03:28;78;78;
40947;PMS5003;49382;-25.924;28.194;2023-04-24T14:05:54;61;61;
40947;PMS5003;49382;-25.924;28.194;2023-04-24T14:08:20;49;49;
40947;PMS5003;49382;-25.924;28.194;2023-04-24T14:10:45;92;92;
40947;PMS5003;49382;-25.924;28.194;2023-04-24T14:13:10;46;46;
40947;PMS5003;49382;-25.924;28.194;2023-04-24T14:15:36;60;59;
40947;PMS5003;49382;-25.924;28.194;2023-04-24T14:18:01;110;109;
40947;PMS5003;49382;-25.924;28.194;2023-04-24T14:20:26;59;59;
40947;PMS5003;49382;-25.924;28.194;2023-04-24T14:22:52;33;33;
40947;PMS5003;49382;-25.924;28.194;2023-04-24T14:25:17;34;34;
40947;PMS5003;49382;-25.924;28.194;2023-04-24T14:27:43;77;76;
40947;PMS5003;49382;-25.924;28.194;2023-04-24T14:30:08;82;82;
40947;PMS5003;49382;-25.924;28.194;2023-04-24T14:32:33;49;49;
40947;PMS5003;49382;-25.924;28.194;2023-04-24T14:34:59;94;92;
40947;PMS5003;49382;-25.924;28.194;2023-04-24T14:37:24;77;77;
40947;PMS5003;49382;-25.924;28.194;2023-04-24T14:39:49;72;71;
40947;PMS5003;49382;-25.924;28.194;2023-04-24T14:42:15;28;28;
40947;PMS5003;49382;-25.924;28.194;2023-04-24T14:44:40;30;30;
40947;PMS5003;49382;-25.924;28.194;2023-04-24T14:47:06;26;26;
40947;PMS5003;49382;-25.924;28.194;2023-04-24T14:49:31;90;89;
40947;PMS5003;49382;-25.924;28.194;2023-04-24T14:51:57;41;41;
40947;PMS5003;49382;-25.924;28.194;2023-04-24T14:54:22;54;54;
40947;PMS5003;49382;-25.924;28.194;2023-04-24T14:56:47;50;50;
40947;PMS5003;49382;-25.924;28.194;2023-04-24T14:59:13;50;48;
40947;PMS5003;49382;-25.924;28.194;2023-04-24T15:01:38;36;36;
40947;PMS5003;49382;-25.924;28.194;2023-04-24T15:04:04;31;31;
40947;PMS5003;49382;-25.924;28.194;2023-04-24T15:06:30;54;54;
40947;PMS5003;49382;-25.924;28.194;2023-04-24T15:08:55;32;32;
40947;PMS5003;49382;-25.924;28.194;2023-04-24T15:11:20;36;35;
40947;PMS5003;49382;-25.924;28.194;2023-04-24T15:13:45;38;38;
40947;PMS5003;49382;-25.924;28.194;2023-04-24T15:16:11;48;47;
40947;PMS5003;49382;-25.924;28.194;2023-04-24T15:18:37;31;31;
40947;PMS5003;49382;-25.924;28.194;2023-04-24T15:21:02;18;18;
40947;PMS5003;49382;-25.924;28.194;2023-04-24T15:23:28;20;19;
40947;PMS5003;49382;-25.924;28.194;2023-04-24T15:25:53;31;30;
40947;PMS5003;49382;-25.924;28.194;2023-04-24T15:28:19;32;31;
40947;PMS5003;49382;-25.924;28.194;2023-04-24T15:30:44;33;33;
40947;PMS5003;49382;-25.924;28.194;2023-04-24T15:33:09;49;49;
40947;PMS5003;49382;-25.924;28.194;2023-04-24T15:35:35;14;14;
40947;PMS5003;49382;-25.924;28.194;2023-04-24T15:38:01;13;13;
40947;PMS5003;49382;-25.924;28.194;2023-04-24T15:40:26;16;15;
40947;PMS5003;49382;-25.924;28.194;2023-04-24T15:42:52;11;11;
40947;PMS5003;49382;-25.924;28.194;2023-04-24T15:45:18;14;14;